sensor_id;sensor_type;location;lat;lon;timestamp;P1;durP1;ratioP1;P2;durP2;ratioP2
18881;SDS011;9573;50.948;11.600;2023-01-06T05:22:35;10.10;;;3.13;;
18881;SDS011;9573;50.948;11.600;2023-01-06T05:25:02;11.70;;;3.80;;
18881;SDS011;9573;50.948;11.600;2023-01-06T05:27:29;11.57;;;3.80;;
18881;SDS011;9573;50.948;11.600;2023-01-06T05:29:56;13.37;;;4.00;;
18881;SDS011;9573;50.948;11.600;2023-01-06T05:32:23;11.70;;;4.37;;
18881;SDS011;9573;50.948;11.600;2023-01-06T05:34:50;14.80;;;4.80;;
18881;SDS011;9573;50.948;11.600;2023-01-06T05:37:18;10.70;;;4.00;;
18881;SDS011;9573;50.948;11.600;2023-01-06T05:39:46;11.67;;;4.30;;
18881;SDS011;9573;50.948;11.600;2023-01-06T05:42:14;13.70;;;4.30;;
18881;SDS011;9573;50.948;11.600;2023-01-06T05:44:42;13.07;;;4.20;;
18881;SDS011;9573;50.948;11.600;2023-01-06T05:47:09;9.37;;;3.57;;
18881;SDS011;9573;50.948;11.600;2023-01-06T05:49:36;9.33;;;2.90;;
18881;SDS011;9573;50.948;11.600;2023-01-06T05:52:03;6.63;;;3.13;;
18881;SDS011;9573;50.948;11.600;2023-01-06T05:54:30;6.77;;;2.97;;
18881;SDS011;9573;50.948;11.600;2023-01-06T05:56:59;5.80;;;2.70;;
18881;SDS011;9573;50.948;11.600;2023-01-06T05:59:26;10.57;;;2.80;;
18881;SDS011;9573;50.948;11.600;2023-01-06T06:01:53;7.13;;;2.73;;
18881;SDS011;9573;50.948;11.600;2023-01-06T06:04:20;6.20;;;2.40;;
18881;SDS011;9573;50.948;11.600;2023-01-06T06:06:47;22.70;;;11.77;;
18881;SDS011;9573;50.948;11.600;2023-01-06T06:09:14;6.70;;;2.90;;
18881;SDS011;9573;50.948;11.600;2023-01-06T06:11:41;10.43;;;2.93;;
18881;SDS011;9573;50.948;11.600;2023-01-06T06:14:09;7.50;;;2.70;;
18881;SDS011;9573;50.948;11.600;2023-01-06T14:02:58;2.57;;;0.77;;
18881;SDS011;9573;50.948;11.600;2023-01-06T14:08:30;2.77;;;0.83;;
18881;SDS011;9573;50.948;11.600;2023-01-06T14:11:04;6.80;;;0.90;;
18881;SDS011;9573;50.948;11.600;2023-01-06T14:13:48;2.57;;;0.90;;
18881;SDS011;9573;50.948;11.600;2023-01-06T14:16:18;1.73;;;0.90;;
18881;SDS011;9573;50.948;11.600;2023-01-06T14:18:47;3.13;;;0.80;;
18881;SDS011;9573;50.948;11.600;2023-01-06T14:21:21;0.97;;;0.70;;
18881;SDS011;9573;50.948;11.600;2023-01-06T14:23:58;6.53;;;1.47;;
18881;SDS011;9573;50.948;11.600;2023-01-06T14:26:43;2.30;;;0.80;;
18881;SDS011;9573;50.948;11.600;2023-01-06T14:35:52;2.00;;;0.63;;
18881;SDS011;9573;50.948;11.600;2023-01-06T14:38:29;3.20;;;0.83;;
18881;SDS011;9573;50.948;11.600;2023-01-06T14:41:02;6.47;;;1.23;;
18881;SDS011;9573;50.948;11.600;2023-01-06T14:43:44;6.10;;;1.20;;
18881;SDS011;9573;50.948;11.600;2023-01-06T14:46:19;1.17;;;0.80;;
18881;SDS011;9573;50.948;11.600;2023-01-06T14:48:53;1.00;;;0.80;;
18881;SDS011;9573;50.948;11.600;2023-01-06T14:51:26;4.17;;;1.00;;
18881;SDS011;9573;50.948;11.600;2023-01-06T14:53:57;2.30;;;1.10;;
18881;SDS011;9573;50.948;11.600;2023-01-06T14:56:28;5.83;;;0.93;;
18881;SDS011;9573;50.948;11.600;2023-01-06T14:59:10;1.03;;;0.87;;
18881;SDS011;9573;50.948;11.600;2023-01-06T15:01:40;4.03;;;1.27;;
18881;SDS011;9573;50.948;11.600;2023-01-06T15:04:26;1.23;;;1.00;;
18881;SDS011;9573;50.948;11.600;2023-01-06T15:06:58;1.27;;;0.70;;
18881;SDS011;9573;50.948;11.600;2023-01-06T15:09:30;2.00;;;1.00;;
18881;SDS011;9573;50.948;11.600;2023-01-06T15:11:58;2.03;;;1.00;;
18881;SDS011;9573;50.948;11.600;2023-01-06T15:14:26;4.17;;;1.47;;
18881;SDS011;9573;50.948;11.600;2023-01-06T15:16:56;5.07;;;0.80;;
18881;SDS011;9573;50.948;11.600;2023-01-06T15:19:28;4.57;;;1.63;;
18881;SDS011;9573;50.948;11.600;2023-01-06T15:21:56;7.57;;;1.47;;
18881;SDS011;9573;50.948;11.600;2023-01-06T15:24:26;2.30;;;0.90;;
18881;SDS011;9573;50.948;11.600;2023-01-06T15:27:01;0.83;;;0.83;;
18881;SDS011;9573;50.948;11.600;2023-01-06T15:29:31;6.60;;;1.60;;
18881;SDS011;9573;50.948;11.600;2023-01-06T15:31:58;2.73;;;1.17;;
18881;SDS011;9573;50.948;11.600;2023-01-06T15:34:29;2.70;;;1.13;;
18881;SDS011;9573;50.948;11.600;2023-01-06T15:37:03;4.23;;;1.10;;
18881;SDS011;9573;50.948;11.600;2023-01-06T15:39:33;4.23;;;1.33;;
18881;SDS011;9573;50.948;11.600;2023-01-06T15:42:04;7.37;;;2.73;;
18881;SDS011;9573;50.948;11.600;2023-01-06T15:44:34;6.63;;;2.17;;
18881;SDS011;9573;50.948;11.600;2023-01-06T15:47:07;8.13;;;2.13;;
18881;SDS011;9573;50.948;11.600;2023-01-06T15:49:47;4.40;;;1.73;;
18881;SDS011;9573;50.948;11.600;2023-01-06T15:52:22;9.40;;;2.83;;
18881;SDS011;9573;50.948;11.600;2023-01-06T15:54:52;5.43;;;2.30;;
18881;SDS011;9573;50.948;11.600;2023-01-06T15:57:22;8.57;;;2.90;;
18881;SDS011;9573;50.948;11.600;2023-01-06T15:59:51;6.50;;;2.60;;
18881;SDS011;9573;50.948;11.600;2023-01-06T16:02:23;12.03;;;2.63;;
18881;SDS011;9573;50.948;11.600;2023-01-06T16:04:54;7.87;;;2.50;;
18881;SDS011;9573;50.948;11.600;2023-01-06T16:07:32;10.93;;;2.50;;
18881;SDS011;9573;50.948;11.600;2023-01-06T16:13:03;5.53;;;2.00;;
18881;SDS011;9573;50.948;11.600;2023-01-06T16:15:50;2.87;;;1.87;;
18881;SDS011;9573;50.948;11.600;2023-01-06T16:18:24;3.53;;;2.10;;
18881;SDS011;9573;50.948;11.600;2023-01-06T16:20:57;3.70;;;1.60;;
18881;SDS011;9573;50.948;11.600;2023-01-06T16:23:38;4.93;;;2.43;;
18881;SDS011;9573;50.948;11.600;2023-01-06T16:26:10;3.20;;;1.47;;
18881;SDS011;9573;50.948;11.600;2023-01-06T16:28:41;4.60;;;1.40;;
18881;SDS011;9573;50.948;11.600;2023-01-06T16:31:12;2.93;;;1.10;;
18881;SDS011;9573;50.948;11.600;2023-01-06T16:33:51;2.70;;;1.43;;
18881;SDS011;9573;50.948;11.600;2023-01-06T16:36:19;17.67;;;6.63;;
18881;SDS011;9573;50.948;11.600;2023-01-06T16:38:50;7.37;;;1.77;;
18881;SDS011;9573;50.948;11.600;2023-01-06T16:41:18;13.17;;;4.57;;
18881;SDS011;9573;50.948;11.600;2023-01-06T16:43:45;6.50;;;2.83;;
18881;SDS011;9573;50.948;11.600;2023-01-06T16:46:18;6.43;;;1.97;;
18881;SDS011;9573;50.948;11.600;2023-01-06T16:48:49;9.37;;;3.07;;
18881;SDS011;9573;50.948;11.600;2023-01-06T16:51:19;8.27;;;2.70;;
18881;SDS011;9573;50.948;11.600;2023-01-06T16:53:47;9.67;;;2.70;;
18881;SDS011;9573;50.948;11.600;2023-01-06T16:56:20;10.70;;;4.20;;
18881;SDS011;9573;50.948;11.600;2023-01-06T16:58:48;5.47;;;2.53;;
18881;SDS011;9573;50.948;11.600;2023-01-06T17:01:18;8.33;;;2.77;;
18881;SDS011;9573;50.948;11.600;2023-01-06T17:03:49;6.57;;;2.80;;
18881;SDS011;9573;50.948;11.600;2023-01-06T17:06:21;14.00;;;2.77;;
18881;SDS011;9573;50.948;11.600;2023-01-06T17:08:52;6.30;;;2.20;;
18881;SDS011;9573;50.948;11.600;2023-01-06T17:11:23;3.03;;;1.53;;
18881;SDS011;9573;50.948;11.600;2023-01-06T17:13:54;3.17;;;1.93;;
18881;SDS011;9573;50.948;11.600;2023-01-06T17:16:24;8.37;;;3.37;;
18881;SDS011;9573;50.948;11.600;2023-01-06T17:18:55;9.07;;;2.17;;
18881;SDS011;9573;50.948;11.600;2023-01-06T17:21:26;5.93;;;2.40;;
18881;SDS011;9573;50.948;11.600;2023-01-06T17:24:01;4.90;;;2.90;;
18881;SDS011;9573;50.948;11.600;2023-01-06T17:26:39;11.33;;;4.40;;
18881;SDS011;9573;50.948;11.600;2023-01-06T17:29:12;9.93;;;3.80;;
18881;SDS011;9573;50.948;11.600;2023-01-06T17:31:42;25.83;;;9.67;;
18881;SDS011;9573;50.948;11.600;2023-01-06T17:34:13;16.43;;;4.67;;
18881;SDS011;9573;50.948;11.600;2023-01-06T17:36:46;17.20;;;5.00;;
18881;SDS011;9573;50.948;11.600;2023-01-06T17:39:17;15.53;;;4.73;;
18881;SDS011;9573;50.948;11.600;2023-01-06T17:41:48;16.50;;;5.27;;
18881;SDS011;9573;50.948;11.600;2023-01-06T17:44:25;19.23;;;5.40;;
18881;SDS011;9573;50.948;11.600;2023-01-06T17:47:00;19.73;;;6.03;;
18881;SDS011;9573;50.948;11.600;2023-01-06T17:49:32;23.00;;;7.20;;
18881;SDS011;9573;50.948;11.600;2023-01-06T17:52:08;24.50;;;7.40;;
18881;SDS011;9573;50.948;11.600;2023-01-06T17:54:39;19.00;;;5.73;;
18881;SDS011;9573;50.948;11.600;2023-01-06T17:57:27;23.13;;;8.03;;
18881;SDS011;9573;50.948;11.600;2023-01-06T17:59:54;22.90;;;7.53;;
18881;SDS011;9573;50.948;11.600;2023-01-06T18:08:38;21.40;;;6.13;;
18881;SDS011;9573;50.948;11.600;2023-01-06T18:13:59;10.67;;;4.57;;
18881;SDS011;9573;50.948;11.600;2023-01-06T18:16:48;16.93;;;5.03;;
18881;SDS011;9573;50.948;11.600;2023-01-06T18:19:27;18.73;;;6.03;;
18881;SDS011;9573;50.948;11.600;2023-01-06T18:21:59;14.03;;;4.53;;
18881;SDS011;9573;50.948;11.600;2023-01-06T18:24:35;12.70;;;5.20;;
18881;SDS011;9573;50.948;11.600;2023-01-06T18:27:05;13.57;;;4.73;;
18881;SDS011;9573;50.948;11.600;2023-01-06T18:29:42;21.20;;;7.33;;
18881;SDS011;9573;50.948;11.600;2023-01-06T18:34:58;16.17;;;5.13;;
18881;SDS011;9573;50.948;11.600;2023-01-06T18:37:27;15.73;;;5.97;;
18881;SDS011;9573;50.948;11.600;2023-01-06T18:39:57;17.17;;;5.23;;
18881;SDS011;9573;50.948;11.600;2023-01-06T18:42:28;10.13;;;3.50;;
18881;SDS011;9573;50.948;11.600;2023-01-06T18:45:13;22.43;;;5.30;;
18881;SDS011;9573;50.948;11.600;2023-01-06T18:47:48;12.40;;;3.47;;
18881;SDS011;9573;50.948;11.600;2023-01-06T18:50:23;11.63;;;4.17;;
18881;SDS011;9573;50.948;11.600;2023-01-06T18:52:57;10.60;;;3.67;;
18881;SDS011;9573;50.948;11.600;2023-01-06T18:55:32;14.67;;;4.40;;
18881;SDS011;9573;50.948;11.600;2023-01-06T18:58:06;17.83;;;5.70;;
18881;SDS011;9573;50.948;11.600;2023-01-06T19:00:45;19.60;;;6.77;;
18881;SDS011;9573;50.948;11.600;2023-01-06T19:03:28;11.33;;;4.57;;
18881;SDS011;9573;50.948;11.600;2023-01-06T19:06:05;11.60;;;4.67;;
18881;SDS011;9573;50.948;11.600;2023-01-06T19:09:12;13.47;;;4.37;;
18881;SDS011;9573;50.948;11.600;2023-01-06T19:11:46;10.10;;;3.93;;
18881;SDS011;9573;50.948;11.600;2023-01-06T19:14:47;19.17;;;7.97;;
18881;SDS011;9573;50.948;11.600;2023-01-06T19:17:20;11.83;;;3.97;;
18881;SDS011;9573;50.948;11.600;2023-01-06T19:19:51;12.43;;;5.83;;
18881;SDS011;9573;50.948;11.600;2023-01-06T19:22:23;6.63;;;3.00;;
18881;SDS011;9573;50.948;11.600;2023-01-06T19:24:58;9.43;;;3.47;;
18881;SDS011;9573;50.948;11.600;2023-01-06T19:27:38;4.90;;;2.87;;
18881;SDS011;9573;50.948;11.600;2023-01-06T19:30:30;7.93;;;3.33;;
18881;SDS011;9573;50.948;11.600;2023-01-06T19:33:17;14.23;;;5.83;;
18881;SDS011;9573;50.948;11.600;2023-01-06T19:35:50;11.60;;;4.40;;
18881;SDS011;9573;50.948;11.600;2023-01-06T19:38:23;12.30;;;4.47;;
18881;SDS011;9573;50.948;11.600;2023-01-06T19:40:53;18.20;;;6.80;;
18881;SDS011;9573;50.948;11.600;2023-01-06T19:43:25;11.50;;;4.13;;
18881;SDS011;9573;50.948;11.600;2023-01-06T19:45:54;7.30;;;3.20;;
18881;SDS011;9573;50.948;11.600;2023-01-06T19:48:24;13.03;;;4.00;;
18881;SDS011;9573;50.948;11.600;2023-01-06T19:50:58;9.40;;;3.00;;
18881;SDS011;9573;50.948;11.600;2023-01-06T19:53:38;19.70;;;6.80;;
18881;SDS011;9573;50.948;11.600;2023-01-06T19:56:15;12.13;;;4.47;;
18881;SDS011;9573;50.948;11.600;2023-01-06T19:58:49;10.10;;;3.57;;
18881;SDS011;9573;50.948;11.600;2023-01-06T20:01:20;16.57;;;5.33;;
18881;SDS011;9573;50.948;11.600;2023-01-06T20:03:49;24.10;;;9.27;;
18881;SDS011;9573;50.948;11.600;2023-01-06T20:06:19;8.57;;;3.50;;
18881;SDS011;9573;50.948;11.600;2023-01-06T20:08:47;19.40;;;7.73;;
18881;SDS011;9573;50.948;11.600;2023-01-06T20:11:19;13.03;;;3.67;;
18881;SDS011;9573;50.948;11.600;2023-01-06T20:13:48;9.60;;;3.73;;
18881;SDS011;9573;50.948;11.600;2023-01-06T20:16:16;13.40;;;5.43;;
18881;SDS011;9573;50.948;11.600;2023-01-06T20:18:43;13.07;;;4.90;;
18881;SDS011;9573;50.948;11.600;2023-01-06T20:21:11;23.27;;;10.20;;
18881;SDS011;9573;50.948;11.600;2023-01-06T20:23:38;10.77;;;3.80;;
18881;SDS011;9573;50.948;11.600;2023-01-06T20:26:05;13.73;;;5.37;;
18881;SDS011;9573;50.948;11.600;2023-01-06T20:28:32;9.33;;;4.00;;
18881;SDS011;9573;50.948;11.600;2023-01-06T20:31:02;17.37;;;6.87;;
18881;SDS011;9573;50.948;11.600;2023-01-06T20:33:29;8.23;;;4.00;;
18881;SDS011;9573;50.948;11.600;2023-01-06T20:35:56;14.00;;;5.10;;
18881;SDS011;9573;50.948;11.600;2023-01-06T20:38:25;16.30;;;5.67;;
18881;SDS011;9573;50.948;11.600;2023-01-06T20:40:52;14.97;;;5.77;;
18881;SDS011;9573;50.948;11.600;2023-01-06T20:43:19;25.23;;;9.87;;
18881;SDS011;9573;50.948;11.600;2023-01-06T20:45:47;15.37;;;5.43;;
18881;SDS011;9573;50.948;11.600;2023-01-06T20:48:14;14.87;;;5.73;;
18881;SDS011;9573;50.948;11.600;2023-01-06T20:50:41;19.87;;;6.80;;
18881;SDS011;9573;50.948;11.600;2023-01-06T20:53:08;21.30;;;8.10;;
18881;SDS011;9573;50.948;11.600;2023-01-06T20:55:37;24.33;;;10.17;;
18881;SDS011;9573;50.948;11.600;2023-01-06T20:58:04;10.30;;;4.00;;
